Time;durP1;ratioP1;P1;durP2;ratioP2;P2;SDS_P1;SDS_P2;PMS_P1;PMS_P2;Temp;Humidity;BMP_temperature;BMP_pressure;BME280_temperature;BME280_humidity;BME280_pressure;Samples;Min_cycle;Max_cycle;Signal;HPM_P1;HPM_P2
2023/01/26 00:00:50;;;;;;;11.15;1.60;;;2.70;99.90;;;;;;4994906;28;20122;-89
2023/01/26 00:03:17;;;;;;;9.93;1.40;;;2.70;99.90;;;;;;5010955;28;20041;-89
2023/01/26 00:05:43;;;;;;;11.77;2.13;;;2.70;99.90;;;;;;5011138;28;20064;-89
2023/01/26 00:08:11;;;;;;;13.65;1.98;;;2.70;99.90;;;;;;5015388;28;20104;-87
2023/01/26 00:10:40;;;;;;;10.30;2.03;;;2.60;99.90;;;;;;5015739;28;20026;-89
2023/01/26 00:13:07;;;;;;;9.82;1.40;;;2.60;99.90;;;;;;5015301;28;20498;-89
2023/01/26 00:15:34;;;;;;;10.63;1.80;;;2.60;99.90;;;;;;4998909;28;20502;-89
2023/01/26 00:18:01;;;;;;;10.55;2.63;;;2.70;99.90;;;;;;5015195;28;20117;-89
2023/01/26 00:20:28;;;;;;;12.20;2.88;;;2.80;99.90;;;;;;5016228;28;20022;-89
2023/01/26 00:22:54;;;;;;;12.95;2.65;;;2.80;99.90;;;;;;4999082;28;20034;-89
2023/01/26 00:25:20;;;;;;;13.48;1.80;;;2.80;99.90;;;;;;4999296;28;20076;-89
2023/01/26 00:27:46;;;;;;;7.90;1.48;;;2.90;99.90;;;;;;5015121;28;20050;-89
2023/01/26 00:30:12;;;;;;;8.77;1.95;;;2.90;99.90;;;;;;5015731;28;20076;-89
2023/01/26 00:32:38;;;;;;;6.90;1.05;;;3.00;99.90;;;;;;5015707;28;20117;-90
2023/01/26 00:35:04;;;;;;;29.02;5.30;;;3.00;99.90;;;;;;5015921;28;20065;-89
2023/01/26 00:37:30;;;;;;;7.22;1.25;;;3.10;99.90;;;;;;5015145;28;20018;-90
2023/01/26 00:39:56;;;;;;;8.90;1.55;;;3.20;99.90;;;;;;5014666;28;20022;-90
2023/01/26 00:42:22;;;;;;;6.00;1.15;;;3.30;99.90;;;;;;5014427;28;20026;-89
2023/01/26 00:44:49;;;;;;;15.57;2.58;;;3.30;99.90;;;;;;5014174;28;20076;-90
2023/01/26 00:47:16;;;;;;;9.55;1.20;;;3.30;99.90;;;;;;5015547;28;20034;-90
2023/01/26 00:49:42;;;;;;;12.10;1.40;;;3.30;99.90;;;;;;5014832;28;20026;-89
2023/01/26 00:52:11;;;;;;;8.55;1.75;;;3.40;99.90;;;;;;5014908;28;20095;-89
2023/01/26 00:54:37;;;;;;;16.90;2.35;;;3.40;99.90;;;;;;5014978;28;20083;-90
2023/01/26 00:57:06;;;;;;;9.30;1.27;;;3.40;99.90;;;;;;5014442;28;20164;-89
2023/01/26 00:59:31;;;;;;;17.40;1.77;;;3.50;99.90;;;;;;5014561;28;20026;-90
2023/01/26 01:02:00;;;;;;;5.00;1.30;;;3.50;99.90;;;;;;5014742;28;20046;-89
2023/01/26 01:04:26;;;;;;;11.57;1.20;;;3.50;99.90;;;;;;4997758;28;20041;-89
2023/01/26 01:06:51;;;;;;;7.68;1.25;;;3.60;99.90;;;;;;4998244;28;20030;-89
2023/01/26 01:09:17;;;;;;;5.70;1.83;;;3.60;99.90;;;;;;5014262;28;20026;-90
2023/01/26 01:11:44;;;;;;;9.38;1.48;;;3.60;99.90;;;;;;5015142;28;20025;-89
2023/01/26 01:14:11;;;;;;;10.85;1.58;;;3.60;99.90;;;;;;5014264;28;20037;-90
2023/01/26 01:16:36;;;;;;;9.05;1.42;;;3.60;99.90;;;;;;5014166;28;20018;-89
2023/01/26 01:19:02;;;;;;;6.57;1.35;;;3.60;99.90;;;;;;5013488;28;20049;-90
2023/01/26 01:21:28;;;;;;;9.57;1.35;;;3.50;99.90;;;;;;4996174;28;20026;-89
2023/01/26 01:23:53;;;;;;;10.40;1.80;;;3.50;99.90;;;;;;5013565;28;20034;-89
2023/01/26 01:26:19;;;;;;;8.95;1.50;;;3.50;99.90;;;;;;5014014;28;20045;-91
2023/01/26 01:28:45;;;;;;;5.68;1.27;;;3.50;99.90;;;;;;5013777;28;20032;-89
2023/01/26 01:31:14;;;;;;;10.18;1.48;;;3.50;99.90;;;;;;5013773;28;20061;-90
2023/01/26 01:33:40;;;;;;;7.20;1.27;;;3.40;99.90;;;;;;5014119;28;20048;-89
2023/01/26 01:36:09;;;;;;;12.07;1.35;;;3.40;99.90;;;;;;5014510;28;20030;-90
2023/01/26 01:38:35;;;;;;;9.68;1.90;;;3.40;99.90;;;;;;5014150;28;20088;-90
2023/01/26 01:41:01;;;;;;;12.27;1.20;;;3.40;99.90;;;;;;5013639;28;20379;-89
2023/01/26 01:43:27;;;;;;;9.73;1.50;;;3.40;99.90;;;;;;5013435;28;20049;-90
2023/01/26 01:45:54;;;;;;;9.32;1.30;;;3.40;99.90;;;;;;5013533;28;20087;-90
2023/01/26 01:48:46;;;;;;;8.10;1.58;;;3.30;99.90;;;;;;5013266;28;20037;-90
2023/01/26 01:51:38;;;;;;;8.07;1.23;;;3.30;99.90;;;;;;4996280;28;20033;-89
2023/01/26 01:54:10;;;;;;;7.05;1.50;;;3.30;99.90;;;;;;4984844;28;20030;-90
2023/01/26 01:56:39;;;;;;;11.30;1.58;;;3.30;99.90;;;;;;5013333;28;20032;-90
2023/01/26 01:59:07;;;;;;;9.50;2.88;;;3.20;99.90;;;;;;5013423;28;20037;-91
2023/01/26 02:01:33;;;;;;;6.68;1.33;;;3.20;99.90;;;;;;5013496;28;20065;-90
2023/01/26 02:04:01;;;;;;;9.27;1.42;;;3.20;99.90;;;;;;5013855;28;20073;-90
2023/01/26 02:06:41;;;;;;;5.40;1.27;;;3.30;99.90;;;;;;5015555;28;20169;-90
2023/01/26 02:09:07;;;;;;;7.70;1.20;;;3.30;99.90;;;;;;5013106;28;20033;-90
2023/01/26 02:11:44;;;;;;;5.78;1.13;;;3.30;99.90;;;;;;4993622;28;20038;-89
2023/01/26 02:14:13;;;;;;;6.25;1.25;;;3.40;99.90;;;;;;5012604;28;20112;-90
2023/01/26 02:16:39;;;;;;;9.77;2.28;;;3.40;99.90;;;;;;5014059;28;20419;-88
2023/01/26 02:19:11;;;;;;;3.17;0.95;;;3.40;99.90;;;;;;5013028;28;20029;-87
2023/01/26 02:21:37;;;;;;;6.95;1.60;;;3.40;99.90;;;;;;5012936;28;20061;-89
2023/01/26 02:24:25;;;;;;;4.13;0.90;;;3.40;99.90;;;;;;5012943;28;20128;-89
2023/01/26 02:26:53;;;;;;;3.03;0.77;;;3.50;99.90;;;;;;5012539;28;20471;-89
2023/01/26 02:29:20;;;;;;;6.85;1.00;;;3.50;99.90;;;;;;4996479;28;20375;-88
2023/01/26 02:31:47;;;;;;;7.72;1.33;;;3.50;99.90;;;;;;5013468;28;20021;-89
2023/01/26 02:34:12;;;;;;;8.43;1.85;;;3.50;99.90;;;;;;5013636;28;20032;-89
2023/01/26 02:36:38;;;;;;;6.97;1.15;;;3.50;99.90;;;;;;5012251;28;20029;-91
2023/01/26 02:39:28;;;;;;;6.10;1.20;;;3.50;99.90;;;;;;5012839;28;20041;-89
2023/01/26 02:44:55;;;;;;;4.95;0.90;;;3.40;99.90;;;;;;4953392;29;20405;-90
2023/01/26 02:47:21;;;;;;;4.65;1.10;;;3.40;99.90;;;;;;4952869;29;20038;-90
2023/01/26 02:49:47;;;;;;;11.32;1.50;;;3.40;99.90;;;;;;4952978;29;20082;-91
2023/01/26 02:52:21;;;;;;;4.65;0.88;;;3.40;99.90;;;;;;4952731;29;20027;-90
2023/01/26 02:57:33;;;;;;;4.20;1.88;;;3.40;99.90;;;;;;4951990;29;20404;-90
2023/01/26 02:59:59;;;;;;;7.85;1.50;;;3.40;99.90;;;;;;4952795;29;20031;-90
2023/01/26 03:02:24;;;;;;;6.00;1.02;;;3.40;99.90;;;;;;4953151;29;20504;-89
2023/01/26 03:04:50;;;;;;;8.18;1.73;;;3.40;99.90;;;;;;4952717;28;20150;-90
2023/01/26 03:07:16;;;;;;;7.32;1.92;;;3.40;99.90;;;;;;4952672;29;20021;-89
2023/01/26 03:09:41;;;;;;;8.30;1.30;;;3.30;99.90;;;;;;4936850;29;20042;-88
2023/01/26 03:12:07;;;;;;;8.93;1.10;;;3.30;99.90;;;;;;4952594;29;20063;-88
2023/01/26 03:14:33;;;;;;;4.93;1.13;;;3.30;99.90;;;;;;4952551;29;20023;-89
2023/01/26 03:17:00;;;;;;;4.80;0.90;;;3.30;99.90;;;;;;4952462;29;20071;-90
2023/01/26 03:27:42;;;;;;;2.00;0.57;;;3.50;99.90;;;;;;4993251;28;20599;-90
2023/01/26 03:30:08;;;;;;;2.38;0.50;;;3.50;99.90;;;;;;5006907;28;20096;-88
2023/01/26 03:32:34;;;;;;;4.28;1.20;;;3.60;99.90;;;;;;5008227;28;20026;-90
2023/01/26 03:34:59;;;;;;;8.85;1.17;;;3.60;99.90;;;;;;5007958;28;20030;-88
2023/01/26 03:37:25;;;;;;;3.97;0.70;;;3.60;99.90;;;;;;4991610;28;20026;-90
2023/01/26 03:56:31;;;;;;;1.88;0.60;;;3.80;99.90;;;;;;4993609;28;20041;-89
2023/01/26 03:59:07;;;;;;;7.30;0.90;;;3.90;99.90;;;;;;5008900;28;20030;-88
2023/01/26 04:01:35;;;;;;;4.40;0.77;;;3.90;99.90;;;;;;5007835;28;20070;-90
2023/01/26 04:09:32;;;;;;;7.65;1.08;;;4.00;99.90;;;;;;4988882;28;20114;-89
2023/01/26 04:11:58;;;;;;;2.92;0.82;;;4.10;99.90;;;;;;4991044;28;20121;-89
2023/01/26 04:22:44;;;;;;;2.83;0.73;;;4.20;99.90;;;;;;4991987;28;20026;-88
2023/01/26 04:25:16;;;;;;;4.32;0.80;;;4.20;99.90;;;;;;5000367;28;20048;-88
2023/01/26 04:27:43;;;;;;;1.35;0.75;;;4.20;99.90;;;;;;5004987;28;20472;-88
2023/01/26 04:30:10;;;;;;;3.70;1.13;;;4.20;99.90;;;;;;5005670;28;20045;-89
2023/01/26 04:32:36;;;;;;;7.05;0.80;;;4.20;99.90;;;;;;5006609;28;20436;-89
2023/01/26 04:35:04;;;;;;;10.30;1.13;;;4.20;99.90;;;;;;5007324;28;20041;-89
2023/01/26 04:37:29;;;;;;;4.32;0.57;;;4.30;99.90;;;;;;5007490;28;20054;-90
2023/01/26 04:39:55;;;;;;;11.15;2.50;;;4.30;99.90;;;;;;5006661;28;20108;-89
2023/01/26 04:42:23;;;;;;;8.48;1.08;;;4.30;99.90;;;;;;5007592;28;20061;-89
2023/01/26 04:44:50;;;;;;;4.82;0.80;;;4.30;99.90;;;;;;4980807;28;20050;-90
2023/01/26 04:47:16;;;;;;;6.97;0.88;;;4.30;99.90;;;;;;5007352;28;20472;-89
2023/01/26 04:49:45;;;;;;;5.38;0.80;;;4.40;99.90;;;;;;5007379;28;20029;-90
2023/01/26 04:52:10;;;;;;;6.30;1.00;;;4.30;99.90;;;;;;5005607;28;20026;-90
2023/01/26 04:54:36;;;;;;;9.77;1.00;;;4.30;99.90;;;;;;4994161;28;20490;-88
2023/01/26 04:57:02;;;;;;;5.80;1.00;;;4.30;99.90;;;;;;5011052;28;20034;-89
2023/01/26 04:59:28;;;;;;;5.35;0.73;;;4.30;99.90;;;;;;5010998;28;20101;-89
2023/01/26 05:01:54;;;;;;;3.03;0.88;;;4.30;99.90;;;;;;4994247;28;20125;-90
2023/01/26 05:04:20;;;;;;;3.97;0.77;;;4.30;99.90;;;;;;4994373;28;20038;-90
2023/01/26 05:06:46;;;;;;;7.88;1.05;;;4.30;99.90;;;;;;4994356;28;20015;-90
2023/01/26 05:09:11;;;;;;;3.53;0.68;;;4.30;99.90;;;;;;5010841;28;20027;-88
2023/01/26 05:11:37;;;;;;;7.28;0.80;;;4.30;99.90;;;;;;5010692;28;20028;-89
2023/01/26 05:14:03;;;;;;;6.43;0.80;;;4.30;99.90;;;;;;5010923;28;20348;-91
2023/01/26 05:16:29;;;;;;;8.05;0.93;;;4.30;99.90;;;;;;5010682;28;20018;-89
2023/01/26 05:18:54;;;;;;;7.38;1.00;;;4.30;99.90;;;;;;4994531;28;20032;-90
2023/01/26 05:21:23;;;;;;;7.22;1.13;;;4.30;99.90;;;;;;5010502;28;20015;-90
2023/01/26 05:23:49;;;;;;;4.93;0.88;;;4.40;99.90;;;;;;5010663;28;20066;-90
2023/01/26 05:26:15;;;;;;;4.22;1.00;;;4.40;99.90;;;;;;5010388;28;20026;-89
2023/01/26 05:28:41;;;;;;;5.45;0.90;;;4.40;99.90;;;;;;4988705;28;20022;-90
2023/01/26 05:31:07;;;;;;;5.25;0.93;;;4.50;99.90;;;;;;5010158;28;20026;-89
2023/01/26 05:33:33;;;;;;;7.03;0.63;;;4.50;99.90;;;;;;4979702;28;20030;-89
2023/01/26 05:36:04;;;;;;;7.35;1.15;;;4.50;99.90;;;;;;5010388;28;20022;-90
2023/01/26 05:38:29;;;;;;;3.15;0.70;;;4.40;99.90;;;;;;5010271;28;20491;-89
2023/01/26 05:40:55;;;;;;;9.50;1.30;;;4.40;99.90;;;;;;4994047;28;20054;-90
2023/01/26 05:43:21;;;;;;;4.70;0.90;;;4.40;99.90;;;;;;5010432;28;20026;-89
2023/01/26 05:45:46;;;;;;;4.90;0.90;;;4.40;99.90;;;;;;4993675;28;20018;-90
2023/01/26 05:48:12;;;;;;;9.23;0.88;;;4.40;99.90;;;;;;5009781;28;20019;-88
2023/01/26 05:50:38;;;;;;;6.95;1.15;;;4.40;99.90;;;;;;4993678;28;20034;-90
2023/01/26 05:53:03;;;;;;;5.15;0.80;;;4.40;99.90;;;;;;5007887;28;20048;-89
2023/01/26 05:55:29;;;;;;;4.82;1.13;;;4.40;99.90;;;;;;5000163;28;20077;-91
2023/01/26 05:57:55;;;;;;;4.90;0.90;;;4.40;99.90;;;;;;5009193;28;20387;-90
2023/01/26 06:00:21;;;;;;;6.72;1.20;;;4.40;99.90;;;;;;5007136;28;20042;-90
2023/01/26 06:02:46;;;;;;;8.73;0.73;;;4.40;99.90;;;;;;5008138;28;20050;-89
2023/01/26 06:05:12;;;;;;;7.05;0.85;;;4.40;99.90;;;;;;5007974;28;20046;-90
2023/01/26 06:07:38;;;;;;;9.50;1.92;;;4.40;99.90;;;;;;4993526;28;20029;-89
2023/01/26 06:10:04;;;;;;;3.38;1.00;;;4.40;99.90;;;;;;5010303;28;20117;-90
2023/01/26 06:12:34;;;;;;;10.82;1.35;;;4.40;99.90;;;;;;5009665;28;20022;-90
2023/01/26 06:15:00;;;;;;;11.18;1.45;;;4.40;99.90;;;;;;5008884;28;20546;-90
2023/01/26 06:17:26;;;;;;;5.65;1.00;;;4.50;99.90;;;;;;5011235;28;20029;-88
2023/01/26 06:19:52;;;;;;;7.63;0.88;;;4.50;99.90;;;;;;5011792;28;20018;-87
2023/01/26 06:22:18;;;;;;;2.90;1.05;;;4.50;99.90;;;;;;5011621;28;20435;-88
2023/01/26 06:24:44;;;;;;;3.90;0.80;;;4.60;99.90;;;;;;4993527;28;20046;-89
2023/01/26 06:27:14;;;;;;;6.32;1.90;;;4.60;99.90;;;;;;5009855;28;20030;-88
2023/01/26 06:29:41;;;;;;;3.47;0.75;;;4.60;99.90;;;;;;5009412;28;20026;-89
2023/01/26 06:32:08;;;;;;;4.38;0.75;;;4.70;99.90;;;;;;4993284;28;20117;-89
2023/01/26 06:34:34;;;;;;;8.35;0.95;;;4.70;99.90;;;;;;5009315;28;20025;-89
2023/01/26 06:37:00;;;;;;;6.07;0.60;;;4.70;99.90;;;;;;5009182;28;20022;-90
2023/01/26 06:39:26;;;;;;;5.57;1.48;;;4.70;99.90;;;;;;5009087;28;20046;-87
2023/01/26 06:41:51;;;;;;;5.88;1.27;;;4.80;99.90;;;;;;5008930;28;20027;-87
2023/01/26 06:44:17;;;;;;;6.72;0.73;;;4.80;99.90;;;;;;5008831;28;20062;-90
2023/01/26 06:46:42;;;;;;;5.47;0.77;;;4.80;99.90;;;;;;5009259;28;20045;-90
2023/01/26 06:49:08;;;;;;;8.35;0.95;;;4.70;99.90;;;;;;5008889;28;20037;-90
2023/01/26 06:51:41;;;;;;;5.65;0.93;;;4.70;99.90;;;;;;5008896;28;20076;-89
2023/01/26 06:54:12;;;;;;;5.82;1.67;;;4.70;99.90;;;;;;4990828;28;20072;-90
2023/01/26 06:56:38;;;;;;;5.80;0.80;;;4.70;99.90;;;;;;5008907;28;20475;-88
2023/01/26 06:59:04;;;;;;;6.65;1.15;;;4.70;99.90;;;;;;5005828;28;20196;-87
2023/01/26 07:01:34;;;;;;;6.20;1.00;;;4.70;99.90;;;;;;5008442;28;20137;-88
2023/01/26 07:04:00;;;;;;;6.85;0.85;;;4.60;99.90;;;;;;5008589;28;20088;-89
2023/01/26 07:06:25;;;;;;;4.88;0.93;;;4.60;99.90;;;;;;5008647;28;20026;-88
2023/01/26 07:08:51;;;;;;;12.30;1.00;;;4.60;99.90;;;;;;4982333;28;20026;-88
2023/01/26 07:11:18;;;;;;;5.57;0.88;;;4.60;99.90;;;;;;5008595;28;20504;-90
2023/01/26 07:13:44;;;;;;;5.80;0.80;;;4.60;99.90;;;;;;5007293;28;20022;-90
2023/01/26 07:16:13;;;;;;;8.55;1.38;;;4.60;99.90;;;;;;4991912;28;20023;-90
2023/01/26 07:18:39;;;;;;;7.78;1.50;;;4.60;99.90;;;;;;5008421;28;20553;-90
2023/01/26 07:21:10;;;;;;;7.18;0.98;;;4.60;99.90;;;;;;4976417;28;20074;-92
2023/01/26 07:23:36;;;;;;;7.05;1.35;;;4.60;99.90;;;;;;4995629;28;20034;-90
2023/01/26 07:26:02;;;;;;;9.55;1.33;;;4.70;99.90;;;;;;4997539;28;20030;-89
2023/01/26 07:28:29;;;;;;;4.93;0.80;;;4.60;99.90;;;;;;5008940;28;20484;-89
2023/01/26 07:31:01;;;;;;;11.63;1.45;;;4.60;99.90;;;;;;4993179;28;20056;-89
2023/01/26 07:33:31;;;;;;;7.38;1.02;;;4.60;99.90;;;;;;4973832;28;20026;-89
2023/01/26 07:35:58;;;;;;;8.30;1.25;;;4.60;99.90;;;;;;5007772;28;20057;-88
2023/01/26 07:38:24;;;;;;;11.55;1.65;;;4.70;99.90;;;;;;5007633;28;20026;-89
2023/01/26 07:40:50;;;;;;;15.18;1.48;;;4.70;99.90;;;;;;4990004;28;20383;-90
2023/01/26 07:43:16;;;;;;;8.45;0.77;;;4.70;99.90;;;;;;5007023;28;20776;-87
2023/01/26 07:45:52;;;;;;;9.20;1.40;;;4.70;99.90;;;;;;4974592;28;20026;-88
2023/01/26 07:48:23;;;;;;;10.77;1.63;;;4.80;99.90;;;;;;5010851;28;20390;-88
2023/01/26 07:50:49;;;;;;;5.95;1.20;;;4.80;99.90;;;;;;5019622;28;20030;-94
2023/01/26 07:53:27;;;;;;;7.03;1.10;;;4.80;99.90;;;;;;5028489;28;20018;-95
2023/01/26 07:55:54;;;;;;;11.27;2.40;;;4.90;99.90;;;;;;5030364;28;20024;-93
2023/01/26 07:58:20;;;;;;;6.05;1.20;;;4.90;99.90;;;;;;5007147;28;20027;-94
2023/01/26 08:00:48;;;;;;;5.78;1.00;;;5.00;99.90;;;;;;5016886;28;20048;-94
2023/01/26 08:03:15;;;;;;;13.32;1.55;;;5.00;99.90;;;;;;5015741;28;20054;-93
2023/01/26 08:05:43;;;;;;;15.15;1.17;;;5.00;99.90;;;;;;5019343;28;20029;-93
2023/01/26 08:08:09;;;;;;;8.10;2.05;;;5.00;99.90;;;;;;5033280;28;20026;-94
2023/01/26 08:10:45;;;;;;;7.32;0.90;;;5.00;99.90;;;;;;5034572;28;20014;-93
2023/01/26 08:13:17;;;;;;;7.50;1.17;;;5.00;99.90;;;;;;5016609;28;20026;-94
2023/01/26 08:15:51;;;;;;;7.93;1.10;;;5.00;99.90;;;;;;5014111;28;20018;-92
2023/01/26 08:18:29;;;;;;;8.27;1.20;;;4.90;99.90;;;;;;4966129;28;20027;-94
2023/01/26 08:21:00;;;;;;;13.00;2.10;;;4.90;99.90;;;;;;4998278;28;20035;-94
2023/01/26 08:23:26;;;;;;;13.00;1.23;;;4.90;99.90;;;;;;5121650;23;20026;-90
2023/01/26 08:25:54;;;;;;;10.35;1.00;;;4.90;99.90;;;;;;5060458;28;20018;-90
2023/01/26 08:28:30;;;;;;;11.60;1.27;;;4.90;99.90;;;;;;5061467;28;20091;-91
2023/01/26 08:30:56;;;;;;;6.63;1.20;;;4.90;99.90;;;;;;5044640;28;20044;-91
2023/01/26 08:33:22;;;;;;;14.55;1.38;;;4.90;99.90;;;;;;5064183;28;20017;-92
2023/01/26 08:35:52;;;;;;;12.00;1.63;;;4.90;99.90;;;;;;5064022;28;20021;-91
2023/01/26 08:38:21;;;;;;;4.38;0.95;;;4.90;99.90;;;;;;5063086;28;20039;-92
2023/01/26 08:40:53;;;;;;;10.40;1.20;;;5.00;99.90;;;;;;5064049;28;20213;-93
2023/01/26 08:43:22;;;;;;;9.38;1.10;;;5.00;99.90;;;;;;5063564;28;20040;-92
2023/01/26 08:45:49;;;;;;;9.68;1.23;;;5.00;99.90;;;;;;5064035;28;20025;-93
2023/01/26 08:48:19;;;;;;;8.38;1.27;;;5.00;99.90;;;;;;5063751;28;20097;-94
2023/01/26 08:50:45;;;;;;;10.20;2.20;;;5.00;99.90;;;;;;5062055;28;20017;-93
2023/01/26 08:53:11;;;;;;;14.38;1.20;;;5.00;99.90;;;;;;5078034;28;20347;-93
2023/01/26 08:55:40;;;;;;;7.93;1.75;;;5.10;99.90;;;;;;5063182;28;20020;-93
2023/01/26 08:58:07;;;;;;;9.75;1.40;;;5.10;99.90;;;;;;5062502;28;20010;-92
2023/01/26 09:00:33;;;;;;;10.40;1.38;;;5.10;99.90;;;;;;5062075;28;20013;-94
2023/01/26 09:03:04;;;;;;;12.65;1.63;;;5.10;99.90;;;;;;5056747;28;20104;-91
2023/01/26 09:05:33;;;;;;;8.95;1.95;;;5.10;99.90;;;;;;5063127;28;20044;-95
2023/01/26 09:08:00;;;;;;;12.43;2.00;;;5.10;99.90;;;;;;5032578;28;20018;-95
2023/01/26 09:10:26;;;;;;;12.18;1.70;;;5.10;99.90;;;;;;5021718;28;20081;-94
2023/01/26 09:12:53;;;;;;;12.07;1.58;;;5.20;99.90;;;;;;5022462;28;20034;-95
2023/01/26 09:15:23;;;;;;;7.60;1.40;;;5.20;99.90;;;;;;5023787;28;20033;-93
2023/01/26 09:18:03;;;;;;;12.02;1.25;;;5.20;99.90;;;;;;5023280;28;20048;-93
2023/01/26 09:20:29;;;;;;;11.48;1.30;;;5.20;99.90;;;;;;5022179;28;20029;-95
2023/01/26 09:22:56;;;;;;;23.30;2.85;;;5.20;99.90;;;;;;5023999;28;20041;-93
2023/01/26 09:25:21;;;;;;;12.80;2.22;;;5.30;99.90;;;;;;5023456;28;20073;-92
2023/01/26 09:27:48;;;;;;;12.18;1.50;;;5.30;99.90;;;;;;5024146;28;20097;-93
2023/01/26 09:30:17;;;;;;;9.63;1.70;;;5.40;99.90;;;;;;5023267;28;20026;-94
2023/01/26 09:32:44;;;;;;;5.95;1.20;;;5.40;99.90;;;;;;5023795;28;20094;-92
2023/01/26 09:35:18;;;;;;;7.53;1.40;;;5.40;99.90;;;;;;5037812;28;20067;-93
2023/01/26 09:37:46;;;;;;;13.50;2.25;;;5.50;99.90;;;;;;5043368;28;20036;-95
2023/01/26 09:40:35;;;;;;;10.93;1.35;;;5.50;99.90;;;;;;5050360;28;20129;-93
2023/01/26 09:43:33;;;;;;;6.30;1.13;;;5.70;99.90;;;;;;5059702;28;20014;-93
2023/01/26 09:46:20;;;;;;;10.65;2.05;;;5.80;99.90;;;;;;5055118;28;20056;-92
2023/01/26 09:49:22;;;;;;;9.32;1.60;;;5.90;99.90;;;;;;5037758;28;20033;-91
2023/01/26 09:52:10;;;;;;;9.82;1.42;;;6.00;99.90;;;;;;5057869;28;20084;-94
2023/01/26 09:55:12;;;;;;;10.18;1.42;;;6.10;99.90;;;;;;5067523;28;20012;-93
2023/01/26 09:58:07;;;;;;;11.45;1.80;;;6.30;99.90;;;;;;5050456;28;20025;-94
2023/01/26 10:00:43;;;;;;;13.55;1.88;;;6.30;99.90;;;;;;5061339;28;20025;-96
2023/01/26 10:03:24;;;;;;;12.32;1.33;;;6.30;99.90;;;;;;5049849;28;20020;-93
2023/01/26 10:06:10;;;;;;;;;;;6.30;99.90;;;;;;5042803;28;20026;-93
2023/01/26 10:08:37;;;;;;;13.15;1.60;;;6.20;99.90;;;;;;5042697;28;19897;-94
2023/01/26 10:11:30;;;;;;;10.10;1.48;;;6.20;99.90;;;;;;5058800;28;20018;-95
2023/01/26 10:14:39;;;;;;;10.73;1.98;;;6.10;99.90;;;;;;5041901;28;20010;-93
2023/01/26 10:17:25;;;;;;;9.13;1.58;;;6.10;99.90;;;;;;5059556;28;20089;-94
2023/01/26 10:20:18;;;;;;;13.02;1.83;;;6.00;99.90;;;;;;5042367;28;20014;-92
2023/01/26 10:22:51;;;;;;;13.63;1.73;;;6.00;99.90;;;;;;5042044;28;20019;-95
2023/01/26 10:25:35;;;;;;;7.60;1.20;;;5.90;99.90;;;;;;5058382;28;20061;-94
2023/01/26 10:28:10;;;;;;;15.10;1.83;;;5.90;99.90;;;;;;5042512;28;20037;-93
2023/01/26 10:30:41;;;;;;;10.10;1.58;;;6.00;99.90;;;;;;5042356;28;20013;-94
2023/01/26 10:33:35;;;;;;;15.75;2.08;;;6.20;99.90;;;;;;5041636;28;20040;-95
2023/01/26 10:36:05;;;;;;;9.68;2.10;;;6.60;99.90;;;;;;5042055;28;20081;-95
2023/01/26 10:38:37;;;;;;;14.88;1.63;;;7.10;99.90;;;;;;5042709;28;20018;-93
2023/01/26 10:41:13;;;;;;;10.40;1.70;;;7.60;99.90;;;;;;5037460;28;20041;-93
2023/01/26 10:44:03;;;;;;;17.35;1.50;;;8.00;99.90;;;;;;5019443;28;20051;-93
2023/01/26 10:46:33;;;;;;;7.45;1.40;;;8.30;99.90;;;;;;5019183;28;20087;-92
2023/01/26 10:49:14;;;;;;;7.50;1.67;;;8.50;99.90;;;;;;5039077;28;20044;-89
2023/01/26 10:51:44;;;;;;;7.15;1.52;;;8.60;99.90;;;;;;5025294;28;20056;-90
2023/01/26 10:54:26;;;;;;;10.60;2.03;;;8.50;99.90;;;;;;5019766;28;20021;-91
2023/01/26 10:57:03;;;;;;;11.50;1.60;;;8.50;99.90;;;;;;5018920;28;20145;-92
2023/01/26 11:00:17;;;;;;;14.35;1.88;;;8.30;99.90;;;;;;5018609;28;20045;-90
2023/01/26 11:02:53;;;;;;;12.25;1.63;;;8.10;99.90;;;;;;4997074;28;20038;-93
2023/01/26 11:05:22;;;;;;;9.30;1.40;;;8.00;99.90;;;;;;5035386;28;20097;-92
2023/01/26 11:07:57;;;;;;;11.93;2.53;;;7.80;99.90;;;;;;5018649;28;20025;-91
2023/01/26 11:10:34;;;;;;;9.75;2.38;;;7.70;99.90;;;;;;5018509;28;20037;-92
2023/01/26 11:13:18;;;;;;;13.43;1.90;;;7.60;99.90;;;;;;5017977;28;20125;-91
2023/01/26 11:16:18;;;;;;;8.38;1.33;;;7.50;99.90;;;;;;5018368;28;20122;-92
2023/01/26 11:19:02;;;;;;;14.40;1.83;;;7.50;99.90;;;;;;5017682;28;20058;-92
2023/01/26 11:21:39;;;;;;;7.93;1.60;;;7.40;99.90;;;;;;5017742;28;20124;-92
2023/01/26 11:24:41;;;;;;;12.65;3.03;;;7.40;99.90;;;;;;5029447;28;20054;-93
2023/01/26 11:27:16;;;;;;;12.43;2.10;;;7.40;99.90;;;;;;4998296;28;20021;-91
2023/01/26 11:30:35;;;;;;;12.93;1.88;;;7.30;99.90;;;;;;5015828;28;20041;-91
2023/01/26 11:33:12;;;;;;;15.68;1.88;;;7.30;99.90;;;;;;4938669;29;20038;-92
2023/01/26 11:35:56;;;;;;;13.20;2.13;;;7.20;99.90;;;;;;4938480;29;20060;-91
2023/01/26 11:38:22;;;;;;;13.52;1.67;;;7.20;99.90;;;;;;4938325;29;20050;-91
2023/01/26 11:40:59;;;;;;;8.38;1.85;;;7.20;99.90;;;;;;4956416;29;20110;-90
2023/01/26 11:43:45;;;;;;;6.30;1.70;;;7.20;99.90;;;;;;4955606;29;20465;-92
2023/01/26 11:46:32;;;;;;;12.55;2.58;;;7.20;99.90;;;;;;4943258;29;20086;-91
2023/01/26 11:49:14;;;;;;;10.38;2.22;;;7.10;99.90;;;;;;4954689;29;20035;-92
2023/01/26 11:51:59;;;;;;;9.82;1.65;;;7.00;99.90;;;;;;4954600;29;20551;-91
2023/01/26 11:54:58;;;;;;;12.30;1.90;;;6.90;99.90;;;;;;4938505;29;20042;-91
2023/01/26 11:57:52;;;;;;;12.68;1.77;;;6.90;99.90;;;;;;4954346;29;20576;-93
2023/01/26 12:00:39;;;;;;;11.85;1.67;;;6.80;99.90;;;;;;4938332;29;20114;-91
2023/01/26 12:03:14;;;;;;;11.80;1.52;;;6.70;99.90;;;;;;4940198;29;20081;-91
2023/01/26 12:05:44;;;;;;;12.60;1.77;;;6.70;99.90;;;;;;4942684;29;20066;-91
2023/01/26 12:08:37;;;;;;;10.88;2.03;;;6.70;99.90;;;;;;4979936;28;20043;-93
2023/01/26 12:11:22;;;;;;;15.10;1.73;;;6.70;99.90;;;;;;5000965;28;20399;-92
2023/01/26 12:14:20;;;;;;;12.48;2.25;;;6.70;99.90;;;;;;4998664;28;20112;-91
2023/01/26 12:17:02;;;;;;;11.35;1.33;;;6.70;99.90;;;;;;4995056;28;20034;-91
2023/01/26 12:19:52;;;;;;;13.20;1.70;;;6.70;99.90;;;;;;5017510;28;20026;-90
2023/01/26 12:22:40;;;;;;;16.48;1.83;;;6.80;99.90;;;;;;5018497;28;20030;-91
2023/01/26 12:25:27;;;;;;;11.55;1.58;;;6.80;99.90;;;;;;5021921;28;20115;-92
2023/01/26 12:28:01;;;;;;;7.57;1.48;;;6.90;99.90;;;;;;5028910;28;20026;-92
2023/01/26 12:30:34;;;;;;;7.57;1.55;;;6.90;99.90;;;;;;5027100;28;20022;-92
2023/01/26 12:33:01;;;;;;;10.02;1.98;;;6.90;99.90;;;;;;5028260;28;20025;-93
2023/01/26 12:36:05;;;;;;;9.32;1.38;;;7.00;99.90;;;;;;5024549;28;20386;-91
2023/01/26 12:38:55;;;;;;;8.55;1.35;;;7.10;99.90;;;;;;5021180;28;20224;-92
2023/01/26 12:42:05;;;;;;;11.13;1.50;;;7.10;99.90;;;;;;5019738;28;20116;-91
2023/01/26 12:44:39;;;;;;;8.02;1.67;;;7.20;99.90;;;;;;4940723;29;20058;-92
2023/01/26 12:47:20;;;;;;;9.15;1.23;;;7.30;99.90;;;;;;4954261;29;20106;-92
2023/01/26 12:49:55;;;;;;;9.90;1.60;;;7.30;99.90;;;;;;4940676;29;20047;-91
2023/01/26 12:52:45;;;;;;;13.05;1.70;;;7.20;99.90;;;;;;4956938;29;20035;-92
2023/01/26 12:55:13;;;;;;;14.50;1.92;;;7.30;99.90;;;;;;4952182;29;20070;-94
2023/01/26 12:57:53;;;;;;;7.47;1.40;;;7.30;99.90;;;;;;4940243;29;20039;-93
2023/01/26 13:00:26;;;;;;;8.50;1.70;;;7.50;99.90;;;;;;4954741;29;20480;-90
2023/01/26 13:03:00;;;;;;;11.57;2.10;;;7.90;99.90;;;;;;4957370;29;20508;-91
2023/01/26 13:05:30;;;;;;;12.68;2.03;;;8.30;99.90;;;;;;4940380;29;20056;-90
2023/01/26 13:07:56;;;;;;;13.00;2.03;;;8.90;99.90;;;;;;4956673;29;20027;-92
2023/01/26 13:10:25;;;;;;;7.82;1.50;;;9.50;99.90;;;;;;4956549;28;20033;-94
2023/01/26 13:13:16;;;;;;;9.95;2.78;;;10.10;99.90;;;;;;4956464;29;20408;-94
2023/01/26 13:15:42;;;;;;;13.20;1.70;;;10.70;99.90;;;;;;4955989;29;20472;-93
2023/01/26 13:18:16;;;;;;;8.02;1.70;;;11.10;99.90;;;;;;4956608;29;20030;-93
2023/01/26 13:20:47;;;;;;;6.22;1.17;;;11.20;99.90;;;;;;4983546;28;20026;-92
2023/01/26 13:23:39;;;;;;;7.65;1.42;;;10.90;99.90;;;;;;5018607;28;20033;-92
2023/01/26 13:26:18;;;;;;;6.65;1.30;;;10.50;99.90;;;;;;5024585;28;20520;-92
2023/01/26 13:28:45;;;;;;;10.10;2.08;;;10.20;99.90;;;;;;5026932;28;20071;-92
2023/01/26 13:31:12;;;;;;;7.90;1.77;;;9.90;99.90;;;;;;5031553;28;20082;-92
2023/01/26 13:33:40;;;;;;;11.02;1.52;;;9.60;99.90;;;;;;5019885;28;20116;-92
2023/01/26 13:36:18;;;;;;;10.45;1.40;;;9.30;99.90;;;;;;5028825;28;20023;-92
2023/01/26 13:38:54;;;;;;;9.02;1.38;;;9.10;99.90;;;;;;5027443;28;20493;-91
2023/01/26 13:41:20;;;;;;;6.57;1.40;;;8.80;99.90;;;;;;5026709;28;20045;-93
2023/01/26 13:44:12;;;;;;;8.88;1.20;;;8.60;99.90;;;;;;5028036;28;20025;-93
2023/01/26 13:47:30;;;;;;;11.07;1.75;;;8.40;99.90;;;;;;5029035;28;20028;-94
2023/01/26 13:49:55;;;;;;;4.43;1.13;;;8.30;99.90;;;;;;5031751;28;20032;-93
2023/01/26 13:52:24;;;;;;;5.82;1.02;;;8.30;99.90;;;;;;5025155;28;20108;-91
2023/01/26 13:54:59;;;;;;;6.10;1.52;;;8.30;99.90;;;;;;5028861;28;20475;-91
2023/01/26 13:57:29;;;;;;;7.20;1.10;;;8.30;99.90;;;;;;5017957;28;20026;-92
2023/01/26 13:59:59;;;;;;;7.93;1.02;;;8.30;99.90;;;;;;5034611;28;20076;-91
2023/01/26 14:02:26;;;;;;;4.80;1.05;;;8.20;99.90;;;;;;5035358;28;20044;-91